Tenjinmaru No11 — JD3353 — position and weather

sailwx.info

Track history (hours):
 
Tides and Currents Weather Stations Pressure Air Temp Water Temp Dewpoint Dewpoint Depression Visibility Wind Speed Wind Dir Waves Ship Positions

Tenjinmaru No11

Last reported at 2017-Jul-29 19:00 UTC. Time now 2017-Aug-18 02:52 UTC.
Position N 34°28' E 135°13'.
Warning: this ship's position is 19 days out of date.

Length 75 m; draft 4.5 m.

Type: Cargo ship. MMSI: 431003485.

Date/timePositionNaut miles runAvg speedWind from/ knotsBaromVisibWave heightAir tempDewpointWater temp
2017-Jul-29 19:00N 34°28' E 135°13'611.4
2017-Jul-29 18:30N 34°23' E 135°08'911.5
2017-Jul-29 17:46N 34°16' E 135°03'3 9.6
2017-Jul-29 17:30N 34°14' E 135°06'1 2.7
2017-Jul-29 17:00N 34°15' E 135°07'0 0.0
2017-Jul-29 16:30N 34°15' E 135°07'0 0.0
2017-Jul-29 15:59N 34°15' E 135°07'0 0.0
2017-Jul-29 15:22N 34°15' E 135°07'0 0.0
2017-Jul-29 14:55N 34°15' E 135°07'0 0.0
2017-Jul-29 13:58N 34°15' E 135°07'0 0.0
2017-Jul-29 13:25N 34°15' E 135°07'0 0.0
2017-Jul-29 12:58N 34°15' E 135°07'0 0.1
2017-Jul-29 12:28N 34°15' E 135°07'0 0.0
2017-Jul-29 11:58N 34°15' E 135°07'0 0.0
2017-Jul-29 11:28N 34°15' E 135°07'0 0.0
2017-Jul-29 10:58N 34°15' E 135°07'0 0.0
2017-Jul-29 10:28N 34°15' E 135°07'0 0.0
2017-Jul-29 09:58N 34°15' E 135°07'0 0.0
2017-Jul-29 09:28N 34°15' E 135°07'0 0.0
2017-Jul-29 08:58N 34°15' E 135°07'0 0.0
2017-Jul-29 08:28N 34°15' E 135°07'0 0.0
2017-Jul-29 07:58N 34°15' E 135°07'0 0.0
2017-Jul-29 07:28N 34°15' E 135°07'0 0.0
2017-Jul-29 06:58N 34°15' E 135°07'0 0.0
2017-Jul-29 06:28N 34°15' E 135°07'0 0.0
2017-Jul-29 05:58N 34°15' E 135°07'0 0.0
2017-Jul-29 05:30N 34°15' E 135°07'3 5.3
2017-Jul-29 05:01N 34°15' E 135°04'1311.4
2017-Jul-29 03:52N 34°28' E 135°07'411.8
2017-Jul-29 03:30N 34°32' E 135°06'510.6
2017-Jul-29 03:00N 34°36' E 135°02'13 9.9
2017-Jul-29 01:40N 34°40' E 134°47'  
2017-Jul-23 05:30N 34°06' E 135°00'611.4
2017-Jul-23 05:00N 34°11' E 134°59'1612.7
2017-Jul-23 03:43N 34°27' E 135°02'312.2
2017-Jul-23 03:30N 34°30' E 135°02'612.3
2017-Jul-23 03:00N 34°36' E 135°02'  
Track history (hours):
 
Tides and Currents Weather Stations Pressure Air Temp Water Temp Dewpoint Dewpoint Depression Visibility Wind Speed Wind Dir Waves Ship Positions

Tenjinmaru No11

Last reported at 2017-Jul-29 19:00 UTC. Time now 2017-Aug-18 02:52 UTC.
Position N 34°28' E 135°13'.
Warning: this ship's position is 19 days out of date.

Length 75 m; draft 4.5 m.

Type: Cargo ship. MMSI: 431003485.

Date/timePositionNaut miles runAvg speedWind from/ knotsBaromVisibWave heightAir tempDewpointWater temp
2017-Jul-29 19:00N 34°28' E 135°13'611.4
2017-Jul-29 18:30N 34°23' E 135°08'911.5
2017-Jul-29 17:46N 34°16' E 135°03'3 9.6
2017-Jul-29 17:30N 34°14' E 135°06'1 2.7
2017-Jul-29 17:00N 34°15' E 135°07'0 0.0
2017-Jul-29 16:30N 34°15' E 135°07'0 0.0
2017-Jul-29 15:59N 34°15' E 135°07'0 0.0
2017-Jul-29 15:22N 34°15' E 135°07'0 0.0
2017-Jul-29 14:55N 34°15' E 135°07'0 0.0
2017-Jul-29 13:58N 34°15' E 135°07'0 0.0
2017-Jul-29 13:25N 34°15' E 135°07'0 0.0
2017-Jul-29 12:58N 34°15' E 135°07'0 0.1
2017-Jul-29 12:28N 34°15' E 135°07'0 0.0
2017-Jul-29 11:58N 34°15' E 135°07'0 0.0
2017-Jul-29 11:28N 34°15' E 135°07'0 0.0
2017-Jul-29 10:58N 34°15' E 135°07'0 0.0
2017-Jul-29 10:28N 34°15' E 135°07'0 0.0
2017-Jul-29 09:58N 34°15' E 135°07'0 0.0
2017-Jul-29 09:28N 34°15' E 135°07'0 0.0
2017-Jul-29 08:58N 34°15' E 135°07'0 0.0
2017-Jul-29 08:28N 34°15' E 135°07'0 0.0
2017-Jul-29 07:58N 34°15' E 135°07'0 0.0
2017-Jul-29 07:28N 34°15' E 135°07'0 0.0
2017-Jul-29 06:58N 34°15' E 135°07'0 0.0
2017-Jul-29 06:28N 34°15' E 135°07'0 0.0
2017-Jul-29 05:58N 34°15' E 135°07'0 0.0
2017-Jul-29 05:30N 34°15' E 135°07'3 5.3
2017-Jul-29 05:01N 34°15' E 135°04'1311.4
2017-Jul-29 03:52N 34°28' E 135°07'411.8
2017-Jul-29 03:30N 34°32' E 135°06'510.6
2017-Jul-29 03:00N 34°36' E 135°02'13 9.9
2017-Jul-29 01:40N 34°40' E 134°47'  
2017-Jul-23 05:30N 34°06' E 135°00'611.4
2017-Jul-23 05:00N 34°11' E 134°59'1612.7
2017-Jul-23 03:43N 34°27' E 135°02'312.2
2017-Jul-23 03:30N 34°30' E 135°02'612.3
2017-Jul-23 03:00N 34°36' E 135°02'  

Dump ship's entire track history